sensor_id;sensor_type;location;lat;lon;timestamp;temperature;humidity
32809;DHT22;19159;48.178;16.386;2023-07-31T00:00:37;24.90;80.50
32809;DHT22;19159;48.178;16.386;2023-07-31T00:03:03;24.80;80.40
32809;DHT22;19159;48.178;16.386;2023-07-31T00:05:28;24.90;80.30
32809;DHT22;19159;48.178;16.386;2023-07-31T00:07:54;24.80;80.20
32809;DHT22;19159;48.178;16.386;2023-07-31T00:10:20;24.80;80.00
32809;DHT22;19159;48.178;16.386;2023-07-31T00:12:46;24.80;79.80
32809;DHT22;19159;48.178;16.386;2023-07-31T00:15:13;24.70;79.60
32809;DHT22;19159;48.178;16.386;2023-07-31T00:17:39;24.80;79.50
32809;DHT22;19159;48.178;16.386;2023-07-31T00:20:05;24.70;79.60
32809;DHT22;19159;48.178;16.386;2023-07-31T00:22:31;24.70;79.50
32809;DHT22;19159;48.178;16.386;2023-07-31T00:24:56;24.60;79.70
32809;DHT22;19159;48.178;16.386;2023-07-31T00:27:22;24.60;79.70
32809;DHT22;19159;48.178;16.386;2023-07-31T00:29:48;24.60;79.90
32809;DHT22;19159;48.178;16.386;2023-07-31T00:32:13;24.60;79.80
32809;DHT22;19159;48.178;16.386;2023-07-31T00:34:39;24.50;79.70
32809;DHT22;19159;48.178;16.386;2023-07-31T00:37:05;24.60;79.90
32809;DHT22;19159;48.178;16.386;2023-07-31T00:39:31;24.50;79.80
32809;DHT22;19159;48.178;16.386;2023-07-31T00:41:56;24.60;79.70
32809;DHT22;19159;48.178;16.386;2023-07-31T00:44:22;24.50;79.60
32809;DHT22;19159;48.178;16.386;2023-07-31T00:46:48;24.50;79.70
32809;DHT22;19159;48.178;16.386;2023-07-31T00:49:14;24.50;79.60
32809;DHT22;19159;48.178;16.386;2023-07-31T00:51:40;24.40;79.50
32809;DHT22;19159;48.178;16.386;2023-07-31T00:54:06;24.40;79.70
32809;DHT22;19159;48.178;16.386;2023-07-31T00:56:32;24.30;79.70
32809;DHT22;19159;48.178;16.386;2023-07-31T00:58:58;24.30;79.80
32809;DHT22;19159;48.178;16.386;2023-07-31T01:01:23;24.30;79.80
32809;DHT22;19159;48.178;16.386;2023-07-31T01:03:50;24.20;79.90
32809;DHT22;19159;48.178;16.386;2023-07-31T01:09:28;24.10;80.50
32809;DHT22;19159;48.178;16.386;2023-07-31T01:12:01;24.00;80.40
32809;DHT22;19159;48.178;16.386;2023-07-31T01:14:27;23.90;80.60
32809;DHT22;19159;48.178;16.386;2023-07-31T01:16:52;23.80;80.90
32809;DHT22;19159;48.178;16.386;2023-07-31T01:19:22;23.80;81.10
32809;DHT22;19159;48.178;16.386;2023-07-31T01:24:23;23.80;81.10
32809;DHT22;19159;48.178;16.386;2023-07-31T01:26:57;23.80;81.30
32809;DHT22;19159;48.178;16.386;2023-07-31T01:29:38;23.70;81.30
32809;DHT22;19159;48.178;16.386;2023-07-31T01:32:09;23.70;81.40
32809;DHT22;19159;48.178;16.386;2023-07-31T01:34:36;23.70;81.40
32809;DHT22;19159;48.178;16.386;2023-07-31T01:37:02;23.70;81.70
32809;DHT22;19159;48.178;16.386;2023-07-31T01:39:28;23.70;81.70
32809;DHT22;19159;48.178;16.386;2023-07-31T01:41:54;23.70;81.90
32809;DHT22;19159;48.178;16.386;2023-07-31T01:44:19;23.70;81.70
32809;DHT22;19159;48.178;16.386;2023-07-31T01:46:45;23.70;81.80
32809;DHT22;19159;48.178;16.386;2023-07-31T01:49:10;23.70;81.70
32809;DHT22;19159;48.178;16.386;2023-07-31T01:51:36;23.70;81.80
32809;DHT22;19159;48.178;16.386;2023-07-31T01:54:02;23.70;81.80
32809;DHT22;19159;48.178;16.386;2023-07-31T01:56:28;23.70;81.70
32809;DHT22;19159;48.178;16.386;2023-07-31T01:58:54;23.70;81.70
32809;DHT22;19159;48.178;16.386;2023-07-31T02:01:19;23.80;81.80
32809;DHT22;19159;48.178;16.386;2023-07-31T02:03:45;23.80;81.80
32809;DHT22;19159;48.178;16.386;2023-07-31T02:06:11;23.70;81.70
32809;DHT22;19159;48.178;16.386;2023-07-31T02:08:36;23.70;81.90
32809;DHT22;19159;48.178;16.386;2023-07-31T02:11:02;23.70;82.50
32809;DHT22;19159;48.178;16.386;2023-07-31T02:13:28;23.70;81.90
32809;DHT22;19159;48.178;16.386;2023-07-31T02:15:53;23.60;82.00
32809;DHT22;19159;48.178;16.386;2023-07-31T02:18:19;23.60;82.20
32809;DHT22;19159;48.178;16.386;2023-07-31T02:20:49;23.60;82.30
32809;DHT22;19159;48.178;16.386;2023-07-31T02:23:15;23.50;82.40
32809;DHT22;19159;48.178;16.386;2023-07-31T02:25:40;23.40;82.70
32809;DHT22;19159;48.178;16.386;2023-07-31T02:28:06;23.40;83.20
32809;DHT22;19159;48.178;16.386;2023-07-31T02:30:32;23.30;83.40
32809;DHT22;19159;48.178;16.386;2023-07-31T02:32:57;23.20;83.60
32809;DHT22;19159;48.178;16.386;2023-07-31T02:35:23;23.20;84.60
32809;DHT22;19159;48.178;16.386;2023-07-31T02:37:48;23.10;84.00
32809;DHT22;19159;48.178;16.386;2023-07-31T02:40:14;23.10;84.00
32809;DHT22;19159;48.178;16.386;2023-07-31T02:42:40;23.10;84.20
32809;DHT22;19159;48.178;16.386;2023-07-31T02:45:06;23.10;84.30
32809;DHT22;19159;48.178;16.386;2023-07-31T02:47:31;23.00;84.30
32809;DHT22;19159;48.178;16.386;2023-07-31T02:49:57;23.00;84.50
32809;DHT22;19159;48.178;16.386;2023-07-31T02:52:23;23.00;84.50
32809;DHT22;19159;48.178;16.386;2023-07-31T02:54:48;23.10;84.60
32809;DHT22;19159;48.178;16.386;2023-07-31T02:57:14;23.10;84.60
32809;DHT22;19159;48.178;16.386;2023-07-31T02:59:39;23.10;84.50
32809;DHT22;19159;48.178;16.386;2023-07-31T03:02:05;23.10;84.60
32809;DHT22;19159;48.178;16.386;2023-07-31T03:04:31;23.00;84.70
32809;DHT22;19159;48.178;16.386;2023-07-31T03:06:56;22.90;84.80
32809;DHT22;19159;48.178;16.386;2023-07-31T03:09:22;22.90;85.00
32809;DHT22;19159;48.178;16.386;2023-07-31T03:11:47;22.90;85.10
32809;DHT22;19159;48.178;16.386;2023-07-31T03:14:13;22.90;85.20
32809;DHT22;19159;48.178;16.386;2023-07-31T03:16:38;23.00;85.20
32809;DHT22;19159;48.178;16.386;2023-07-31T03:19:04;23.10;85.20
32809;DHT22;19159;48.178;16.386;2023-07-31T03:21:30;23.00;84.90
32809;DHT22;19159;48.178;16.386;2023-07-31T03:23:55;23.00;85.10
32809;DHT22;19159;48.178;16.386;2023-07-31T03:26:21;23.00;85.20
32809;DHT22;19159;48.178;16.386;2023-07-31T03:28:46;23.00;85.40
32809;DHT22;19159;48.178;16.386;2023-07-31T03:31:12;23.00;85.40
32809;DHT22;19159;48.178;16.386;2023-07-31T03:33:38;23.00;85.40
32809;DHT22;19159;48.178;16.386;2023-07-31T03:36:04;23.00;85.50
32809;DHT22;19159;48.178;16.386;2023-07-31T03:38:29;23.00;85.60
32809;DHT22;19159;48.178;16.386;2023-07-31T03:40:55;23.00;85.70
32809;DHT22;19159;48.178;16.386;2023-07-31T03:43:20;23.10;85.80
32809;DHT22;19159;48.178;16.386;2023-07-31T03:45:46;23.10;86.50
32809;DHT22;19159;48.178;16.386;2023-07-31T03:48:14;23.10;85.60
32809;DHT22;19159;48.178;16.386;2023-07-31T03:50:40;23.20;85.50
32809;DHT22;19159;48.178;16.386;2023-07-31T03:53:05;23.30;85.40
32809;DHT22;19159;48.178;16.386;2023-07-31T03:55:31;23.30;85.50
32809;DHT22;19159;48.178;16.386;2023-07-31T03:57:56;23.30;85.70
32809;DHT22;19159;48.178;16.386;2023-07-31T04:00:22;23.30;85.80
32809;DHT22;19159;48.178;16.386;2023-07-31T04:02:48;23.40;86.00
32809;DHT22;19159;48.178;16.386;2023-07-31T04:05:13;23.40;86.10
32809;DHT22;19159;48.178;16.386;2023-07-31T04:07:39;23.50;86.30
32809;DHT22;19159;48.178;16.386;2023-07-31T04:10:05;23.50;86.30
32809;DHT22;19159;48.178;16.386;2023-07-31T04:12:30;23.60;86.40
32809;DHT22;19159;48.178;16.386;2023-07-31T04:14:56;23.60;86.50
32809;DHT22;19159;48.178;16.386;2023-07-31T04:17:21;23.70;86.60
32809;DHT22;19159;48.178;16.386;2023-07-31T04:19:47;23.70;86.50
32809;DHT22;19159;48.178;16.386;2023-07-31T04:22:12;23.70;86.60
32809;DHT22;19159;48.178;16.386;2023-07-31T04:24:38;23.70;86.60
32809;DHT22;19159;48.178;16.386;2023-07-31T04:27:04;23.70;86.50
32809;DHT22;19159;48.178;16.386;2023-07-31T04:29:29;23.80;86.50
32809;DHT22;19159;48.178;16.386;2023-07-31T04:31:55;23.80;86.20
32809;DHT22;19159;48.178;16.386;2023-07-31T04:34:21;23.80;86.20
32809;DHT22;19159;48.178;16.386;2023-07-31T04:36:46;23.80;86.20
32809;DHT22;19159;48.178;16.386;2023-07-31T04:39:12;23.80;86.20
32809;DHT22;19159;48.178;16.386;2023-07-31T04:41:37;23.80;86.00
32809;DHT22;19159;48.178;16.386;2023-07-31T04:44:03;23.80;85.90
32809;DHT22;19159;48.178;16.386;2023-07-31T04:46:29;23.90;85.80
32809;DHT22;19159;48.178;16.386;2023-07-31T04:48:55;23.90;86.30
32809;DHT22;19159;48.178;16.386;2023-07-31T04:51:20;24.00;85.40
32809;DHT22;19159;48.178;16.386;2023-07-31T04:53:46;24.00;85.10
32809;DHT22;19159;48.178;16.386;2023-07-31T04:56:12;24.00;84.90
32809;DHT22;19159;48.178;16.386;2023-07-31T04:58:37;24.00;84.70
32809;DHT22;19159;48.178;16.386;2023-07-31T05:01:03;24.10;84.60
32809;DHT22;19159;48.178;16.386;2023-07-31T05:03:29;24.10;84.40
32809;DHT22;19159;48.178;16.386;2023-07-31T05:05:54;24.10;84.30
32809;DHT22;19159;48.178;16.386;2023-07-31T05:08:20;24.20;84.20
32809;DHT22;19159;48.178;16.386;2023-07-31T05:10:45;24.20;83.60
32809;DHT22;19159;48.178;16.386;2023-07-31T05:13:11;24.20;83.30
32809;DHT22;19159;48.178;16.386;2023-07-31T05:15:37;24.30;83.00
32809;DHT22;19159;48.178;16.386;2023-07-31T05:18:03;24.30;83.10
32809;DHT22;19159;48.178;16.386;2023-07-31T05:20:28;24.40;82.80
32809;DHT22;19159;48.178;16.386;2023-07-31T05:22:54;24.50;82.30
32809;DHT22;19159;48.178;16.386;2023-07-31T05:25:19;24.50;82.00
32809;DHT22;19159;48.178;16.386;2023-07-31T05:27:45;24.50;81.80
32809;DHT22;19159;48.178;16.386;2023-07-31T05:30:11;24.70;81.80
32809;DHT22;19159;48.178;16.386;2023-07-31T05:32:36;24.70;81.00
32809;DHT22;19159;48.178;16.386;2023-07-31T05:35:02;24.80;81.00
32809;DHT22;19159;48.178;16.386;2023-07-31T05:37:28;24.90;80.90
32809;DHT22;19159;48.178;16.386;2023-07-31T05:39:53;25.10;80.80
32809;DHT22;19159;48.178;16.386;2023-07-31T05:42:19;25.30;80.50
32809;DHT22;19159;48.178;16.386;2023-07-31T05:44:44;25.50;79.60
32809;DHT22;19159;48.178;16.386;2023-07-31T05:47:10;25.70;79.40
32809;DHT22;19159;48.178;16.386;2023-07-31T05:49:36;25.90;79.10
32809;DHT22;19159;48.178;16.386;2023-07-31T05:52:01;26.10;78.30
32809;DHT22;19159;48.178;16.386;2023-07-31T05:54:27;26.30;77.40
32809;DHT22;19159;48.178;16.386;2023-07-31T05:56:53;26.40;77.10
32809;DHT22;19159;48.178;16.386;2023-07-31T05:59:18;26.70;76.70
32809;DHT22;19159;48.178;16.386;2023-07-31T06:01:44;26.90;76.50
32809;DHT22;19159;48.178;16.386;2023-07-31T06:04:09;27.10;75.80
32809;DHT22;19159;48.178;16.386;2023-07-31T06:06:35;27.20;75.10
32809;DHT22;19159;48.178;16.386;2023-07-31T06:09:00;27.30;74.40
32809;DHT22;19159;48.178;16.386;2023-07-31T06:11:26;27.50;73.50
32809;DHT22;19159;48.178;16.386;2023-07-31T06:13:52;27.60;73.50
32809;DHT22;19159;48.178;16.386;2023-07-31T06:16:17;27.80;73.30
32809;DHT22;19159;48.178;16.386;2023-07-31T06:18:43;27.80;72.30
32809;DHT22;19159;48.178;16.386;2023-07-31T06:21:09;27.70;71.40
32809;DHT22;19159;48.178;16.386;2023-07-31T06:23:36;27.80;71.80
32809;DHT22;19159;48.178;16.386;2023-07-31T06:26:01;27.90;71.80
32809;DHT22;19159;48.178;16.386;2023-07-31T06:28:28;27.80;70.70
32809;DHT22;19159;48.178;16.386;2023-07-31T06:30:54;27.80;71.30
32809;DHT22;19159;48.178;16.386;2023-07-31T06:33:20;27.90;71.10
32809;DHT22;19159;48.178;16.386;2023-07-31T06:35:46;28.00;70.80
32809;DHT22;19159;48.178;16.386;2023-07-31T06:38:11;28.00;70.20
32809;DHT22;19159;48.178;16.386;2023-07-31T06:40:37;28.00;70.00
32809;DHT22;19159;48.178;16.386;2023-07-31T06:43:02;28.00;69.50
32809;DHT22;19159;48.178;16.386;2023-07-31T06:45:39;28.10;68.90
32809;DHT22;19159;48.178;16.386;2023-07-31T06:48:05;28.20;69.80
32809;DHT22;19159;48.178;16.386;2023-07-31T06:50:33;28.40;68.70
32809;DHT22;19159;48.178;16.386;2023-07-31T06:52:59;28.60;68.10
32809;DHT22;19159;48.178;16.386;2023-07-31T06:55:25;28.80;67.40
32809;DHT22;19159;48.178;16.386;2023-07-31T06:57:53;29.00;67.10
32809;DHT22;19159;48.178;16.386;2023-07-31T07:00:21;29.00;65.70
32809;DHT22;19159;48.178;16.386;2023-07-31T07:02:47;29.10;65.50
32809;DHT22;19159;48.178;16.386;2023-07-31T07:05:13;29.30;64.90
32809;DHT22;19159;48.178;16.386;2023-07-31T07:07:39;29.60;64.70
32809;DHT22;19159;48.178;16.386;2023-07-31T07:10:06;29.90;64.20
32809;DHT22;19159;48.178;16.386;2023-07-31T07:12:32;30.00;62.20
32809;DHT22;19159;48.178;16.386;2023-07-31T07:14:58;30.10;61.50
32809;DHT22;19159;48.178;16.386;2023-07-31T07:17:25;30.30;62.60
32809;DHT22;19159;48.178;16.386;2023-07-31T07:19:51;30.50;61.90
32809;DHT22;19159;48.178;16.386;2023-07-31T07:22:17;30.80;59.20
32809;DHT22;19159;48.178;16.386;2023-07-31T07:24:43;30.80;59.50
32809;DHT22;19159;48.178;16.386;2023-07-31T07:27:08;31.00;59.40
32809;DHT22;19159;48.178;16.386;2023-07-31T07:29:34;31.10;59.10
32809;DHT22;19159;48.178;16.386;2023-07-31T07:32:00;31.30;58.80
32809;DHT22;19159;48.178;16.386;2023-07-31T07:34:27;31.30;55.70
32809;DHT22;19159;48.178;16.386;2023-07-31T07:36:53;31.00;56.20
32809;DHT22;19159;48.178;16.386;2023-07-31T07:39:19;31.00;55.80
32809;DHT22;19159;48.178;16.386;2023-07-31T07:41:46;30.80;55.20
32809;DHT22;19159;48.178;16.386;2023-07-31T07:44:12;30.70;56.40
32809;DHT22;19159;48.178;16.386;2023-07-31T07:46:37;30.90;56.70
32809;DHT22;19159;48.178;16.386;2023-07-31T07:49:03;31.10;56.90
32809;DHT22;19159;48.178;16.386;2023-07-31T07:51:29;31.20;56.60
32809;DHT22;19159;48.178;16.386;2023-07-31T07:53:56;31.20;56.20
32809;DHT22;19159;48.178;16.386;2023-07-31T07:56:21;31.20;55.80
32809;DHT22;19159;48.178;16.386;2023-07-31T07:58:51;31.20;55.30
32809;DHT22;19159;48.178;16.386;2023-07-31T08:01:16;31.30;55.50
32809;DHT22;19159;48.178;16.386;2023-07-31T08:03:42;31.40;56.10
32809;DHT22;19159;48.178;16.386;2023-07-31T08:06:08;31.40;55.70
32809;DHT22;19159;48.178;16.386;2023-07-31T08:08:35;31.30;55.10
32809;DHT22;19159;48.178;16.386;2023-07-31T08:11:01;31.20;55.60
32809;DHT22;19159;48.178;16.386;2023-07-31T08:13:27;31.10;55.40
32809;DHT22;19159;48.178;16.386;2023-07-31T08:15:52;31.20;55.40
32809;DHT22;19159;48.178;16.386;2023-07-31T08:18:18;31.30;55.20
32809;DHT22;19159;48.178;16.386;2023-07-31T08:20:44;31.30;55.20
32809;DHT22;19159;48.178;16.386;2023-07-31T08:23:10;31.30;54.60
32809;DHT22;19159;48.178;16.386;2023-07-31T08:25:36;31.10;54.20
32809;DHT22;19159;48.178;16.386;2023-07-31T08:28:03;31.30;54.80
32809;DHT22;19159;48.178;16.386;2023-07-31T08:30:28;31.30;54.80
32809;DHT22;19159;48.178;16.386;2023-07-31T08:32:54;31.30;54.60
32809;DHT22;19159;48.178;16.386;2023-07-31T08:35:19;31.10;54.80
32809;DHT22;19159;48.178;16.386;2023-07-31T08:37:45;31.10;54.90
32809;DHT22;19159;48.178;16.386;2023-07-31T08:40:11;31.00;55.20
32809;DHT22;19159;48.178;16.386;2023-07-31T08:42:47;30.80;55.50
32809;DHT22;19159;48.178;16.386;2023-07-31T08:45:17;30.80;56.40
32809;DHT22;19159;48.178;16.386;2023-07-31T08:47:48;30.80;56.50
32809;DHT22;19159;48.178;16.386;2023-07-31T08:50:15;30.80;56.30
32809;DHT22;19159;48.178;16.386;2023-07-31T08:52:40;30.60;55.10
32809;DHT22;19159;48.178;16.386;2023-07-31T08:55:07;30.10;53.50
32809;DHT22;19159;48.178;16.386;2023-07-31T08:57:35;29.90;54.80
32809;DHT22;19159;48.178;16.386;2023-07-31T09:00:02;29.80;55.10
32809;DHT22;19159;48.178;16.386;2023-07-31T09:02:37;29.70;55.40
32809;DHT22;19159;48.178;16.386;2023-07-31T09:05:07;29.80;56.00
32809;DHT22;19159;48.178;16.386;2023-07-31T09:07:34;29.80;56.10
32809;DHT22;19159;48.178;16.386;2023-07-31T09:10:00;29.80;56.20
32809;DHT22;19159;48.178;16.386;2023-07-31T09:12:26;29.80;56.40
32809;DHT22;19159;48.178;16.386;2023-07-31T09:14:51;30.00;56.70
32809;DHT22;19159;48.178;16.386;2023-07-31T09:17:29;30.00;56.60
32809;DHT22;19159;48.178;16.386;2023-07-31T09:19:55;30.10;56.00
32809;DHT22;19159;48.178;16.386;2023-07-31T09:22:32;30.10;56.40
32809;DHT22;19159;48.178;16.386;2023-07-31T09:25:18;30.10;55.80
32809;DHT22;19159;48.178;16.386;2023-07-31T09:28:01;29.70;55.90
32809;DHT22;19159;48.178;16.386;2023-07-31T09:30:27;29.60;56.30
32809;DHT22;19159;48.178;16.386;2023-07-31T09:33:05;29.60;57.20
32809;DHT22;19159;48.178;16.386;2023-07-31T09:35:34;29.50;57.20
32809;DHT22;19159;48.178;16.386;2023-07-31T09:38:03;29.70;57.60
32809;DHT22;19159;48.178;16.386;2023-07-31T09:43:02;29.60;57.30
32809;DHT22;19159;48.178;16.386;2023-07-31T09:45:29;29.60;57.30
32809;DHT22;19159;48.178;16.386;2023-07-31T09:47:56;29.60;57.50
32809;DHT22;19159;48.178;16.386;2023-07-31T09:50:23;29.70;57.80
32809;DHT22;19159;48.178;16.386;2023-07-31T09:52:50;29.60;56.80
32809;DHT22;19159;48.178;16.386;2023-07-31T09:55:17;29.70;57.40
32809;DHT22;19159;48.178;16.386;2023-07-31T09:57:49;29.80;57.10
32809;DHT22;19159;48.178;16.386;2023-07-31T10:00:17;29.70;56.40
32809;DHT22;19159;48.178;16.386;2023-07-31T10:02:47;29.60;55.90
32809;DHT22;19159;48.178;16.386;2023-07-31T10:05:14;29.40;56.20
32809;DHT22;19159;48.178;16.386;2023-07-31T10:07:49;29.40;56.70
32809;DHT22;19159;48.178;16.386;2023-07-31T10:10:16;29.50;56.80
32809;DHT22;19159;48.178;16.386;2023-07-31T10:12:46;29.60;56.50
32809;DHT22;19159;48.178;16.386;2023-07-31T10:15:12;29.70;56.60
32809;DHT22;19159;48.178;16.386;2023-07-31T10:17:38;29.70;56.30
32809;DHT22;19159;48.178;16.386;2023-07-31T10:20:04;29.80;56.40
32809;DHT22;19159;48.178;16.386;2023-07-31T10:22:31;29.80;56.30
32809;DHT22;19159;48.178;16.386;2023-07-31T10:24:59;29.90;56.50
32809;DHT22;19159;48.178;16.386;2023-07-31T10:27:25;30.10;56.70
32809;DHT22;19159;48.178;16.386;2023-07-31T10:29:52;30.20;56.50
32809;DHT22;19159;48.178;16.386;2023-07-31T10:32:19;30.30;56.50
32809;DHT22;19159;48.178;16.386;2023-07-31T10:34:46;30.40;56.60
32809;DHT22;19159;48.178;16.386;2023-07-31T10:37:35;30.50;56.40
32809;DHT22;19159;48.178;16.386;2023-07-31T10:40:07;30.60;55.60
32809;DHT22;19159;48.178;16.386;2023-07-31T10:42:35;30.60;55.10
32809;DHT22;19159;48.178;16.386;2023-07-31T10:45:04;30.50;55.30
32809;DHT22;19159;48.178;16.386;2023-07-31T10:47:30;30.50;55.90
32809;DHT22;19159;48.178;16.386;2023-07-31T10:50:22;30.40;55.70
32809;DHT22;19159;48.178;16.386;2023-07-31T10:52:56;30.20;55.20
32809;DHT22;19159;48.178;16.386;2023-07-31T10:55:42;30.10;55.60
32809;DHT22;19159;48.178;16.386;2023-07-31T10:58:13;30.10;55.40
32809;DHT22;19159;48.178;16.386;2023-07-31T11:00:42;30.20;55.90
32809;DHT22;19159;48.178;16.386;2023-07-31T11:03:15;30.40;56.00
32809;DHT22;19159;48.178;16.386;2023-07-31T11:05:48;30.60;56.40
32809;DHT22;19159;48.178;16.386;2023-07-31T11:08:16;30.70;55.40
32809;DHT22;19159;48.178;16.386;2023-07-31T11:10:43;30.60;55.50
32809;DHT22;19159;48.178;16.386;2023-07-31T11:13:09;30.70;55.40
32809;DHT22;19159;48.178;16.386;2023-07-31T11:15:35;30.80;55.40
32809;DHT22;19159;48.178;16.386;2023-07-31T11:18:01;30.80;55.20
32809;DHT22;19159;48.178;16.386;2023-07-31T11:20:36;30.90;54.70
32809;DHT22;19159;48.178;16.386;2023-07-31T11:23:04;31.00;53.90
32809;DHT22;19159;48.178;16.386;2023-07-31T11:25:31;31.00;53.90
32809;DHT22;19159;48.178;16.386;2023-07-31T11:28:01;31.10;53.70
32809;DHT22;19159;48.178;16.386;2023-07-31T11:30:28;31.00;53.20
32809;DHT22;19159;48.178;16.386;2023-07-31T11:32:55;30.90;53.60
32809;DHT22;19159;48.178;16.386;2023-07-31T11:35:21;30.90;54.10
32809;DHT22;19159;48.178;16.386;2023-07-31T11:37:47;30.90;54.50
32809;DHT22;19159;48.178;16.386;2023-07-31T11:40:14;30.90;54.30
32809;DHT22;19159;48.178;16.386;2023-07-31T11:42:40;30.80;53.70
32809;DHT22;19159;48.178;16.386;2023-07-31T11:45:07;30.80;54.10
32809;DHT22;19159;48.178;16.386;2023-07-31T11:47:35;30.90;54.60
32809;DHT22;19159;48.178;16.386;2023-07-31T11:50:05;31.00;54.50
32809;DHT22;19159;48.178;16.386;2023-07-31T11:52:35;31.00;53.90
32809;DHT22;19159;48.178;16.386;2023-07-31T11:55:02;31.00;54.00
32809;DHT22;19159;48.178;16.386;2023-07-31T11:57:29;31.10;54.00
32809;DHT22;19159;48.178;16.386;2023-07-31T11:59:55;30.90;52.90
32809;DHT22;19159;48.178;16.386;2023-07-31T12:02:21;30.80;52.10
32809;DHT22;19159;48.178;16.386;2023-07-31T12:04:48;30.60;51.00
32809;DHT22;19159;48.178;16.386;2023-07-31T12:07:13;30.40;51.60
32809;DHT22;19159;48.178;16.386;2023-07-31T12:09:56;30.40;52.10
32809;DHT22;19159;48.178;16.386;2023-07-31T12:12:23;30.30;51.60
32809;DHT22;19159;48.178;16.386;2023-07-31T12:14:49;30.30;52.00
32809;DHT22;19159;48.178;16.386;2023-07-31T12:17:16;30.30;52.40
32809;DHT22;19159;48.178;16.386;2023-07-31T12:19:42;30.40;52.60
32809;DHT22;19159;48.178;16.386;2023-07-31T12:22:15;30.50;52.80
32809;DHT22;19159;48.178;16.386;2023-07-31T12:24:42;30.50;53.50
32809;DHT22;19159;48.178;16.386;2023-07-31T12:27:18;30.60;52.60
32809;DHT22;19159;48.178;16.386;2023-07-31T12:29:44;30.50;52.20
32809;DHT22;19159;48.178;16.386;2023-07-31T12:32:23;30.30;52.30
32809;DHT22;19159;48.178;16.386;2023-07-31T12:34:50;30.30;52.60
32809;DHT22;19159;48.178;16.386;2023-07-31T12:37:16;30.30;53.60
32809;DHT22;19159;48.178;16.386;2023-07-31T12:39:42;30.40;54.00
32809;DHT22;19159;48.178;16.386;2023-07-31T12:42:07;30.50;54.20
32809;DHT22;19159;48.178;16.386;2023-07-31T12:44:33;30.50;54.30
32809;DHT22;19159;48.178;16.386;2023-07-31T12:46:59;30.50;53.90
32809;DHT22;19159;48.178;16.386;2023-07-31T12:49:24;30.50;54.00
32809;DHT22;19159;48.178;16.386;2023-07-31T12:51:50;30.50;54.00
32809;DHT22;19159;48.178;16.386;2023-07-31T12:54:15;30.60;54.20
32809;DHT22;19159;48.178;16.386;2023-07-31T12:56:41;30.60;53.70
32809;DHT22;19159;48.178;16.386;2023-07-31T12:59:07;30.60;53.20
32809;DHT22;19159;48.178;16.386;2023-07-31T13:01:32;30.60;53.10
32809;DHT22;19159;48.178;16.386;2023-07-31T13:03:58;30.60;53.10
32809;DHT22;19159;48.178;16.386;2023-07-31T13:06:25;30.60;53.20
32809;DHT22;19159;48.178;16.386;2023-07-31T13:08:51;30.60;53.00
32809;DHT22;19159;48.178;16.386;2023-07-31T13:11:16;30.60;53.30
32809;DHT22;19159;48.178;16.386;2023-07-31T13:13:42;30.60;53.40
32809;DHT22;19159;48.178;16.386;2023-07-31T13:16:07;30.60;53.60
32809;DHT22;19159;48.178;16.386;2023-07-31T13:18:33;30.60;53.70
32809;DHT22;19159;48.178;16.386;2023-07-31T13:20:58;30.60;53.20
32809;DHT22;19159;48.178;16.386;2023-07-31T13:23:24;30.50;53.10
32809;DHT22;19159;48.178;16.386;2023-07-31T13:25:50;30.50;53.60
32809;DHT22;19159;48.178;16.386;2023-07-31T13:28:15;30.50;53.60
32809;DHT22;19159;48.178;16.386;2023-07-31T13:30:41;30.50;53.80
32809;DHT22;19159;48.178;16.386;2023-07-31T13:33:06;30.50;53.70
32809;DHT22;19159;48.178;16.386;2023-07-31T13:35:32;30.50;53.90
32809;DHT22;19159;48.178;16.386;2023-07-31T13:37:57;30.50;52.50
32809;DHT22;19159;48.178;16.386;2023-07-31T13:40:23;30.40;51.80
32809;DHT22;19159;48.178;16.386;2023-07-31T13:42:49;30.40;51.70
32809;DHT22;19159;48.178;16.386;2023-07-31T13:45:14;30.20;51.60
32809;DHT22;19159;48.178;16.386;2023-07-31T13:47:40;30.30;52.20
32809;DHT22;19159;48.178;16.386;2023-07-31T13:50:06;30.30;52.20
32809;DHT22;19159;48.178;16.386;2023-07-31T13:52:32;30.30;52.10
32809;DHT22;19159;48.178;16.386;2023-07-31T13:54:57;30.40;51.70
32809;DHT22;19159;48.178;16.386;2023-07-31T13:57:23;30.40;51.50
32809;DHT22;19159;48.178;16.386;2023-07-31T13:59:49;30.40;52.20
32809;DHT22;19159;48.178;16.386;2023-07-31T14:02:14;30.50;52.30
32809;DHT22;19159;48.178;16.386;2023-07-31T14:04:40;30.60;52.10
32809;DHT22;19159;48.178;16.386;2023-07-31T14:07:06;30.70;52.40
32809;DHT22;19159;48.178;16.386;2023-07-31T14:09:32;30.80;52.50
32809;DHT22;19159;48.178;16.386;2023-07-31T14:11:57;30.90;52.30
32809;DHT22;19159;48.178;16.386;2023-07-31T14:14:23;30.90;52.60
32809;DHT22;19159;48.178;16.386;2023-07-31T14:16:48;30.90;52.30
32809;DHT22;19159;48.178;16.386;2023-07-31T14:19:14;30.90;52.00
32809;DHT22;19159;48.178;16.386;2023-07-31T14:21:40;30.80;52.00
32809;DHT22;19159;48.178;16.386;2023-07-31T14:24:05;30.80;51.90
32809;DHT22;19159;48.178;16.386;2023-07-31T14:26:31;30.80;51.90
32809;DHT22;19159;48.178;16.386;2023-07-31T14:28:57;30.80;51.70
32809;DHT22;19159;48.178;16.386;2023-07-31T14:31:23;30.80;51.40
32809;DHT22;19159;48.178;16.386;2023-07-31T14:33:48;30.70;51.40
32809;DHT22;19159;48.178;16.386;2023-07-31T14:36:14;30.60;51.40
32809;DHT22;19159;48.178;16.386;2023-07-31T14:38:39;30.60;51.50
32809;DHT22;19159;48.178;16.386;2023-07-31T14:41:05;30.60;51.70
32809;DHT22;19159;48.178;16.386;2023-07-31T14:43:31;30.50;51.60
32809;DHT22;19159;48.178;16.386;2023-07-31T14:45:57;30.50;51.80
32809;DHT22;19159;48.178;16.386;2023-07-31T14:48:25;30.50;51.30
32809;DHT22;19159;48.178;16.386;2023-07-31T14:50:51;30.50;51.70
32809;DHT22;19159;48.178;16.386;2023-07-31T14:53:16;30.60;51.60
32809;DHT22;19159;48.178;16.386;2023-07-31T14:55:42;30.60;51.50
32809;DHT22;19159;48.178;16.386;2023-07-31T14:58:07;30.60;51.60
32809;DHT22;19159;48.178;16.386;2023-07-31T15:00:35;30.60;51.50
32809;DHT22;19159;48.178;16.386;2023-07-31T15:03:02;30.60;51.50
32809;DHT22;19159;48.178;16.386;2023-07-31T15:05:28;30.50;51.40
32809;DHT22;19159;48.178;16.386;2023-07-31T15:07:53;30.50;51.00
32809;DHT22;19159;48.178;16.386;2023-07-31T15:10:19;30.50;51.10
32809;DHT22;19159;48.178;16.386;2023-07-31T15:12:44;30.60;51.70
32809;DHT22;19159;48.178;16.386;2023-07-31T15:15:10;30.60;51.30
32809;DHT22;19159;48.178;16.386;2023-07-31T15:17:35;30.60;51.30
32809;DHT22;19159;48.178;16.386;2023-07-31T15:20:01;30.60;51.70